Strona główna
METAR-TAF:

METAR-TAF

Lotnisko :

Port lotniczy Saint John

Saint John, Nowy Brunszwik, Kanada

Szerokość geograficzna: 45-20N, Długość geograficzna: 065-53W, wysokość: 103 m

Aktualna obserwacja pogody

Raport powstał 52 minut temu, godzina 05:00 UTC
Wiatr 13 kt od północny zachód
Temperatura -5°C
Wilgotność 68%
Ciśnienie 1008 hPa
Widzialność: 24.1 km
bezchmurnie

METAR: CYSJ 170500Z 32013KT 15SM SKC M05/M10 A2977 RMK SLP089

czas: 01:52 (05:52 UTC)

Prognoza

Raport powstał 11 minut temu, godzina 05:41 UTC
Prognoza ważna od 17 godzina 06 UTC do 17 godzina 18 UTC
Wiatr 10 kt od zachodnio-północny zachód w porywach dochodzący do 20 kt
Widzialność: 10 km
Mało chmury na wysokości 3000 ft

TAF: CYSJ 170541Z 1706/1718 30010G20KT P6SM FEW030 RMK NXT FCST BY 171200Z

Obserwacja i prognoza pogody dla ponad 4000 lotnisk (raport METAR i TAF).

Dostępne stacje oznaczono żółtymi i czerwonymi punktami na mapie.

Najedź kursorem aby zobaczyć nazwę stacji.

Kliknij aby zobaczyć obserwacje i prognozy pogody.

Aby zmienić mapę: kliknij na zielony przycisk z czarnym krzyżykiem, aby powiększyć; na zielony przycisk z myślnikiem, aby pomniejszyć; na zielone strzałki, aby przejść do map sąsiednich.


METAR-TAF: